Royal Klipper — PCIH — position and weather

sailwx.info

Track history (hours):
 
Tides and Currents Weather Stations Pressure Air Temp Water Temp Dewpoint Dewpoint Depression Visibility Wind Speed Wind Dir Waves Ship Positions

Royal Klipper

Last reported at 2018-Feb-22 01:48 UTC. Time now 2018-Feb-22 06:46 UTC.
Position N 49°46' W 003°37'.

Type: Cargo ship. MMSI: 246428000.

Date/timePositionNaut miles runAvg speedWind from/ knotsBaromVisibWave heightAir tempDewpointWater temp
2018-Feb-22 01:48N 49°46' W 003°37'720.8
2018-Feb-22 01:29N 49°49' W 003°28'1020.2
2018-Feb-22 01:00N 49°53' W 003°14'1019.7
2018-Feb-22 00:31N 49°56' W 003°00'918.9
2018-Feb-22 00:00N 49°60' W 002°46'918.2
2018-Feb-21 23:30N 50°02' W 002°32'2716.8
2018-Feb-21 21:52N 50°00' W 001°50'618.3
2018-Feb-21 21:30N 49°58' W 001°40'918.9
2018-Feb-21 21:00N 49°54' W 001°27'1019.5
2018-Feb-21 20:30N 49°50' W 001°13'1020.4
2018-Feb-21 20:00N 49°46' W 000°59'1121.0
2018-Feb-21 19:30N 49°41' W 000°44'1121.5
2018-Feb-21 19:00N 49°37' W 000°29'1121.1
2018-Feb-21 18:30N 49°33' W 000°14'815.4
2018-Feb-21 18:01N 49°30' W 000°03'612.1
2018-Feb-21 17:31N 49°29' E 000°06'2 3.6
2018-Feb-21 16:58N 49°28' E 000°09'0 0.0
2018-Feb-21 16:28N 49°28' E 000°09'0 0.0
2018-Feb-21 15:58N 49°28' E 000°09'0 0.0
2018-Feb-21 15:28N 49°28' E 000°09'0 0.0
2018-Feb-21 14:58N 49°28' E 000°09'0 0.0
2018-Feb-21 14:28N 49°28' E 000°09'0 0.0
2018-Feb-21 13:58N 49°28' E 000°09'0 0.0
2018-Feb-21 13:28N 49°28' E 000°09'0 0.0
2018-Feb-21 12:58N 49°28' E 000°09'0 0.0
2018-Feb-21 12:28N 49°28' E 000°09'0 0.0
2018-Feb-21 11:58N 49°28' E 000°09'0 0.0
2018-Feb-21 11:28N 49°28' E 000°09'0 0.0
2018-Feb-21 10:58N 49°28' E 000°09'0 0.0
2018-Feb-21 10:28N 49°28' E 000°09'0 0.0
2018-Feb-21 09:58N 49°28' E 000°09'0 0.1
2018-Feb-21 09:28N 49°28' E 000°09'0 0.0
2018-Feb-21 08:58N 49°28' E 000°09'0 0.0
2018-Feb-21 08:28N 49°28' E 000°09'0 0.0
2018-Feb-21 07:58N 49°28' E 000°09'0 0.0
2018-Feb-21 07:28N 49°28' E 000°09'0 0.0
2018-Feb-21 06:58N 49°28' E 000°09'0 0.0
2018-Feb-21 06:28N 49°28' E 000°09'0 0.0
2018-Feb-21 05:58N 49°28' E 000°09'0 0.0
2018-Feb-21 05:28N 49°28' E 000°09'0 0.0
2018-Feb-21 04:58N 49°28' E 000°09'2 4.0
2018-Feb-21 04:30N 49°29' E 000°06'713.3
2018-Feb-21 04:00N 49°30' W 000°04'611.1
2018-Feb-21 03:31N 49°32' W 000°12'917.4
2018-Feb-21 03:00N 49°41' W 000°11'918.6
2018-Feb-21 02:30N 49°50' W 000°09'918.4
2018-Feb-21 02:00N 49°59' W 000°07'1018.3
2018-Feb-21 01:29N 50°09' W 000°05'918.1
2018-Feb-21 01:00N 50°17' W 000°03'918.1
2018-Feb-21 00:30N 50°26' W 000°02'816.3
2018-Feb-21 00:00N 50°30' E 000°09'917.2
2018-Feb-20 23:30N 50°32' E 000°22'917.7
2018-Feb-20 23:00N 50°35' E 000°35'918.6
2018-Feb-20 22:30N 50°40' E 000°48'1019.9
2018-Feb-20 22:00N 50°45' E 001°01'1121.5
2018-Feb-20 21:30N 50°52' E 001°14'1222.9
2018-Feb-20 20:58N 51°01' E 001°28'1022.5
2018-Feb-20 20:31N 51°09' E 001°39'1121.4
2018-Feb-20 20:00N 51°17' E 001°49'1020.0
2018-Feb-20 19:30N 51°25' E 001°59'1020.4
2018-Feb-20 19:00N 51°21' E 002°14'1019.3
2018-Feb-20 18:30N 51°23' E 002°30'917.4
2018-Feb-20 17:57N 51°22' E 002°45'613.8
2018-Feb-20 17:30N 51°23' E 002°55'817.0
2018-Feb-20 17:01N 51°24' E 003°08'917.5
2018-Feb-20 16:30N 51°25' E 003°22'816.8
2018-Feb-20 16:01N 51°26' E 003°35'5 9.7
2018-Feb-20 15:30N 51°28' E 003°42'0 0.1
2018-Feb-20 10:11N 51°29' E 003°42'0 0.0
2018-Feb-20 09:47N 51°29' E 003°42'0 0.0
2018-Feb-20 09:29N 51°29' E 003°42'0 0.0
2018-Feb-20 08:53N 51°29' E 003°42'0 0.0
2018-Feb-20 08:11N 51°29' E 003°42'0 0.0
2018-Feb-20 06:56N 51°29' E 003°42'0 0.0
2018-Feb-20 06:17N 51°29' E 003°42'0 0.0
2018-Feb-20 05:56N 51°29' E 003°42'0 0.0
2018-Feb-20 05:29N 51°29' E 003°42'0 0.0
2018-Feb-20 04:59N 51°29' E 003°42'0 0.0
2018-Feb-20 04:29N 51°29' E 003°42'0 0.0
2018-Feb-20 03:59N 51°29' E 003°42'0 0.0
2018-Feb-20 03:26N 51°29' E 003°42'0 0.0
2018-Feb-20 02:59N 51°29' E 003°42'0 0.0
2018-Feb-20 02:29N 51°29' E 003°42'0 0.0
2018-Feb-20 01:59N 51°29' E 003°42'0 0.0
2018-Feb-20 01:29N 51°29' E 003°42'0 0.0
2018-Feb-20 00:59N 51°29' E 003°42'0 0.0
2018-Feb-20 00:11N 51°29' E 003°42'0 0.0
2018-Feb-19 23:56N 51°29' E 003°42'0 0.0
2018-Feb-19 22:41N 51°29' E 003°42'0 0.0
2018-Feb-19 21:23N 51°29' E 003°42'0 0.0
2018-Feb-19 20:29N 51°29' E 003°42'0 0.0
2018-Feb-19 19:59N 51°29' E 003°42'0 0.0
2018-Feb-19 18:59N 51°29' E 003°42'0 0.0
2018-Feb-19 18:29N 51°29' E 003°42'0 0.0
2018-Feb-19 17:29N 51°29' E 003°42'0 0.0
2018-Feb-19 16:59N 51°29' E 003°42'0 0.0
2018-Feb-19 16:29N 51°29' E 003°42'0 0.0
2018-Feb-19 15:59N 51°29' E 003°42'0 0.0
2018-Feb-19 14:53N 51°29' E 003°42'0 0.0
2018-Feb-19 12:35N 51°29' E 003°42'0 0.1
2018-Feb-19 12:29N 51°29' E 003°42'0 0.0
2018-Feb-19 11:59N 51°29' E 003°42'0 0.0
2018-Feb-19 11:11N 51°29' E 003°42'0 0.0
2018-Feb-19 10:47N 51°29' E 003°42'0 0.0
2018-Feb-19 09:53N 51°29' E 003°42'0 0.0
2018-Feb-19 03:59N 51°29' E 003°42'0 0.0
2018-Feb-19 03:17N 51°29' E 003°42'0 0.0
2018-Feb-19 02:59N 51°29' E 003°42'0 0.0
2018-Feb-19 02:29N 51°29' E 003°42'1 1.7
2018-Feb-19 02:00N 51°28' E 003°42'4 7.3
2018-Feb-19 01:30N 51°26' E 003°37'713.7
2018-Feb-19 01:00N 51°25' E 003°26'815.4
2018-Feb-19 00:31N 51°24' E 003°14'714.2
2018-Feb-19 00:00N 51°24' E 003°03'510.8
2018-Feb-18 23:30N 51°22' E 002°55'510.3
2018-Feb-18 23:00N 51°22' E 002°46'610.3
2018-Feb-18 22:27N 51°22' E 002°37'3 5.6
2018-Feb-18 21:56N 51°24' E 002°34'0 0.1
2018-Feb-18 21:30N 51°24' E 002°34'0 0.0
2018-Feb-18 20:57N 51°24' E 002°34'0 0.0
2018-Feb-18 20:30N 51°24' E 002°34'0 0.1
2018-Feb-18 20:00N 51°24' E 002°34'0 0.1
2018-Feb-18 19:15N 51°24' E 002°34'0 0.1
2018-Feb-18 18:54N 51°24' E 002°34'0 0.1
2018-Feb-18 18:30N 51°24' E 002°34'0 0.0
2018-Feb-18 18:00N 51°24' E 002°34'0 0.1
2018-Feb-18 17:30N 51°24' E 002°35'0 0.1
2018-Feb-18 16:51N 51°24' E 002°35'0 0.0
2018-Feb-18 16:30N 51°24' E 002°35'0 0.0
2018-Feb-18 16:00N 51°24' E 002°35'0 0.0
2018-Feb-18 15:30N 51°24' E 002°35'0 0.0
2018-Feb-18 15:00N 51°24' E 002°35'0 0.0
2018-Feb-18 14:30N 51°24' E 002°35'0 0.0
2018-Feb-18 14:00N 51°24' E 002°35'0 0.0
2018-Feb-18 13:30N 51°24' E 002°35'0 0.0
2018-Feb-18 13:00N 51°24' E 002°35'0 0.3
2018-Feb-18 12:30N 51°24' E 002°34'0 0.1
2018-Feb-18 12:00N 51°24' E 002°34'0 0.0
2018-Feb-18 11:30N 51°24' E 002°34'0 0.0
2018-Feb-18 11:00N 51°24' E 002°34'0 0.0
2018-Feb-18 10:30N 51°24' E 002°34'0 0.0
2018-Feb-18 10:00N 51°24' E 002°34'0 0.0
2018-Feb-18 09:30N 51°24' E 002°34'0 0.0
2018-Feb-18 09:00N 51°24' E 002°34'0 0.0
2018-Feb-18 08:30N 51°24' E 002°34'0 0.0
2018-Feb-18 07:57N 51°24' E 002°34'0 0.1
2018-Feb-18 07:30N 51°24' E 002°34'0 0.0
2018-Feb-18 07:00N 51°24' E 002°34'0 0.1
2018-Feb-18 06:30N 51°24' E 002°34'0 0.1
2018-Feb-18 06:00N 51°24' E 002°35'0 0.0
2018-Feb-18 05:30N 51°24' E 002°35'0 0.0
2018-Feb-18 04:54N 51°24' E 002°35'0 0.0
2018-Feb-18 04:30N 51°24' E 002°35'0 0.0
2018-Feb-18 04:00N 51°24' E 002°35'0 0.0
2018-Feb-18 03:30N 51°24' E 002°35'0 0.0
2018-Feb-18 03:00N 51°24' E 002°35'0 0.0
2018-Feb-18 02:30N 51°24' E 002°35'0 0.0
2018-Feb-18 02:00N 51°24' E 002°35'0 0.0
2018-Feb-18 01:30N 51°24' E 002°35'0 0.0
2018-Feb-18 01:00N 51°24' E 002°35'0 0.1
2018-Feb-18 00:30N 51°24' E 002°35'0 0.2
2018-Feb-18 00:00N 51°24' E 002°35'0 0.1
2018-Feb-17 23:30N 51°24' E 002°34'0 0.0
2018-Feb-17 23:00N 51°24' E 002°34'0 0.0
2018-Feb-17 22:30N 51°24' E 002°34'0 0.0
2018-Feb-17 22:00N 51°24' E 002°34'0 0.0
2018-Feb-17 21:27N 51°24' E 002°34'0 0.0
2018-Feb-17 21:00N 51°24' E 002°34'0 0.0
2018-Feb-17 20:30N 51°24' E 002°34'0 0.0
2018-Feb-17 20:00N 51°24' E 002°34'0 0.0
2018-Feb-17 19:30N 51°24' E 002°34'0 0.1
2018-Feb-17 18:57N 51°24' E 002°34'0 0.1
2018-Feb-17 18:03N 51°24' E 002°34'0 5.1
2018-Feb-17 17:58N 51°24' E 002°34'2 4.7
2018-Feb-17 17:30N 51°22' E 002°34'4 7.0
2018-Feb-17 17:00N 51°21' E 002°28'5 9.7
2018-Feb-17 16:30N 51°19' E 002°21'611.5
2018-Feb-17 16:00N 51°16' E 002°13'611.8
2018-Feb-17 15:30N 51°14' E 002°05'612.3
2018-Feb-17 15:00N 51°11' E 001°56'612.6
2018-Feb-17 14:30N 51°07' E 001°48'713.4
2018-Feb-17 14:00N 51°04' E 001°38'510.3
2018-Feb-17 13:30N 51°07' E 001°31'5 9.9
2018-Feb-17 13:00N 51°08' E 001°23'2 0.0
2018-Feb-15 21:03N 51°08' E 001°20'0 0.1
2018-Feb-15 20:58N 51°08' E 001°20'1 1.4
2018-Feb-15 20:30N 51°07' E 001°20'3 5.7
2018-Feb-15 20:00N 51°07' E 001°25'4 8.2
2018-Feb-15 19:30N 51°04' E 001°29'5 9.6
2018-Feb-15 19:00N 50°59' E 001°31'611.5
2018-Feb-15 18:30N 50°54' E 001°26'5412.1
2018-Feb-15 14:00N 50°22' E 000°17'714.3
2018-Feb-15 13:30N 50°20' E 000°06'714.6
2018-Feb-15 13:00N 50°18' W 000°05'714.6
2018-Feb-15 12:30N 50°17' W 000°16'815.1
2018-Feb-15 11:59N 50°15' W 000°28'2117.5
2018-Feb-15 10:46N 50°09' W 000°60'618.7
2018-Feb-15 10:26N 50°07' W 001°10'819.3
2018-Feb-15 10:00N 50°06' W 001°22'1019.8
2018-Feb-15 09:31N 50°03' W 001°37'1020.4
2018-Feb-15 09:00N 50°00' W 001°52'1020.8
2018-Feb-15 08:30N 49°58' W 002°08'1522.9
2018-Feb-15 07:51N 49°53' W 002°30'1022.5
2018-Feb-15 07:24N 49°50' W 002°45'2322.0
2018-Feb-15 06:21N 49°40' W 003°17'5221.7
2018-Feb-15 03:57N 49°14' W 004°26'1421.7
2018-Feb-15 03:17N 49°07' W 004°45'921.6
2018-Feb-15 02:54N 49°03' W 004°57'821.2
2018-Feb-15 02:30N 48°59' W 005°08'1121.6
2018-Feb-15 01:59N 48°53' W 005°22'1021.3
2018-Feb-15 01:30N 48°48' W 005°36'1021.0
2018-Feb-15 01:00N 48°39' W 005°44'1121.1
2018-Feb-15 00:29N 48°29' W 005°52'1120.0
2018-Feb-14 23:58N 48°22' W 006°03'1120.1
2018-Feb-14 23:23N 48°15' W 006°17'1119.9
2018-Feb-14 22:51N 48°10' W 006°31'104320.1
2018-Feb-12 18:55N 38°41' W 026°35'3719.9
2018-Feb-12 17:05N 38°21' W 027°14'119.5
2018-Feb-12 17:00N 38°20' W 027°16'1020.1
2018-Feb-12 16:30N 38°15' W 027°27'1019.9
2018-Feb-12 16:00N 38°10' W 027°37'1019.6
2018-Feb-12 15:30N 38°04' W 027°48'1020.0
2018-Feb-12 15:00N 37°59' W 027°58'1020.1
2018-Feb-12 14:30N 37°53' W 028°09'1019.9
2018-Feb-12 14:00N 37°48' W 028°20'1019.9
2018-Feb-12 13:30N 37°42' W 028°30'1019.9
2018-Feb-12 13:01N 37°36' W 028°40'1020.0
2018-Feb-12 12:30N 37°31' W 028°51'1020.1
2018-Feb-12 12:00N 37°25' W 029°01'1020.1
2018-Feb-12 11:30N 37°20' W 029°12'11020.0
2018-Feb-12 06:00N 36°18' W 031°06'   020 / 151032.7 5.4 17.012.8
Track history (hours):
 
Tides and Currents Weather Stations Pressure Air Temp Water Temp Dewpoint Dewpoint Depression Visibility Wind Speed Wind Dir Waves Ship Positions

Royal Klipper

Last reported at 2018-Feb-22 01:48 UTC. Time now 2018-Feb-22 06:46 UTC.
Position N 49°46' W 003°37'.

Type: Cargo ship. MMSI: 246428000.

Date/timePositionNaut miles runAvg speedWind from/ knotsBaromVisibWave heightAir tempDewpointWater temp
2018-Feb-22 01:48N 49°46' W 003°37'720.8
2018-Feb-22 01:29N 49°49' W 003°28'1020.2
2018-Feb-22 01:00N 49°53' W 003°14'1019.7
2018-Feb-22 00:31N 49°56' W 003°00'918.9
2018-Feb-22 00:00N 49°60' W 002°46'918.2
2018-Feb-21 23:30N 50°02' W 002°32'2716.8
2018-Feb-21 21:52N 50°00' W 001°50'618.3
2018-Feb-21 21:30N 49°58' W 001°40'918.9
2018-Feb-21 21:00N 49°54' W 001°27'1019.5
2018-Feb-21 20:30N 49°50' W 001°13'1020.4
2018-Feb-21 20:00N 49°46' W 000°59'1121.0
2018-Feb-21 19:30N 49°41' W 000°44'1121.5
2018-Feb-21 19:00N 49°37' W 000°29'1121.1
2018-Feb-21 18:30N 49°33' W 000°14'815.4
2018-Feb-21 18:01N 49°30' W 000°03'612.1
2018-Feb-21 17:31N 49°29' E 000°06'2 3.6
2018-Feb-21 16:58N 49°28' E 000°09'0 0.0
2018-Feb-21 16:28N 49°28' E 000°09'0 0.0
2018-Feb-21 15:58N 49°28' E 000°09'0 0.0
2018-Feb-21 15:28N 49°28' E 000°09'0 0.0
2018-Feb-21 14:58N 49°28' E 000°09'0 0.0
2018-Feb-21 14:28N 49°28' E 000°09'0 0.0
2018-Feb-21 13:58N 49°28' E 000°09'0 0.0
2018-Feb-21 13:28N 49°28' E 000°09'0 0.0
2018-Feb-21 12:58N 49°28' E 000°09'0 0.0
2018-Feb-21 12:28N 49°28' E 000°09'0 0.0
2018-Feb-21 11:58N 49°28' E 000°09'0 0.0
2018-Feb-21 11:28N 49°28' E 000°09'0 0.0
2018-Feb-21 10:58N 49°28' E 000°09'0 0.0
2018-Feb-21 10:28N 49°28' E 000°09'0 0.0
2018-Feb-21 09:58N 49°28' E 000°09'0 0.1
2018-Feb-21 09:28N 49°28' E 000°09'0 0.0
2018-Feb-21 08:58N 49°28' E 000°09'0 0.0
2018-Feb-21 08:28N 49°28' E 000°09'0 0.0
2018-Feb-21 07:58N 49°28' E 000°09'0 0.0
2018-Feb-21 07:28N 49°28' E 000°09'0 0.0
2018-Feb-21 06:58N 49°28' E 000°09'0 0.0
2018-Feb-21 06:28N 49°28' E 000°09'0 0.0
2018-Feb-21 05:58N 49°28' E 000°09'0 0.0
2018-Feb-21 05:28N 49°28' E 000°09'0 0.0
2018-Feb-21 04:58N 49°28' E 000°09'2 4.0
2018-Feb-21 04:30N 49°29' E 000°06'713.3
2018-Feb-21 04:00N 49°30' W 000°04'611.1
2018-Feb-21 03:31N 49°32' W 000°12'917.4
2018-Feb-21 03:00N 49°41' W 000°11'918.6
2018-Feb-21 02:30N 49°50' W 000°09'918.4
2018-Feb-21 02:00N 49°59' W 000°07'1018.3
2018-Feb-21 01:29N 50°09' W 000°05'918.1
2018-Feb-21 01:00N 50°17' W 000°03'918.1
2018-Feb-21 00:30N 50°26' W 000°02'816.3
2018-Feb-21 00:00N 50°30' E 000°09'917.2
2018-Feb-20 23:30N 50°32' E 000°22'917.7
2018-Feb-20 23:00N 50°35' E 000°35'918.6
2018-Feb-20 22:30N 50°40' E 000°48'1019.9
2018-Feb-20 22:00N 50°45' E 001°01'1121.5
2018-Feb-20 21:30N 50°52' E 001°14'1222.9
2018-Feb-20 20:58N 51°01' E 001°28'1022.5
2018-Feb-20 20:31N 51°09' E 001°39'1121.4
2018-Feb-20 20:00N 51°17' E 001°49'1020.0
2018-Feb-20 19:30N 51°25' E 001°59'1020.4
2018-Feb-20 19:00N 51°21' E 002°14'1019.3
2018-Feb-20 18:30N 51°23' E 002°30'917.4
2018-Feb-20 17:57N 51°22' E 002°45'613.8
2018-Feb-20 17:30N 51°23' E 002°55'817.0
2018-Feb-20 17:01N 51°24' E 003°08'917.5
2018-Feb-20 16:30N 51°25' E 003°22'816.8
2018-Feb-20 16:01N 51°26' E 003°35'5 9.7
2018-Feb-20 15:30N 51°28' E 003°42'0 0.1
2018-Feb-20 10:11N 51°29' E 003°42'0 0.0
2018-Feb-20 09:47N 51°29' E 003°42'0 0.0
2018-Feb-20 09:29N 51°29' E 003°42'0 0.0
2018-Feb-20 08:53N 51°29' E 003°42'0 0.0
2018-Feb-20 08:11N 51°29' E 003°42'0 0.0
2018-Feb-20 06:56N 51°29' E 003°42'0 0.0
2018-Feb-20 06:17N 51°29' E 003°42'0 0.0
2018-Feb-20 05:56N 51°29' E 003°42'0 0.0
2018-Feb-20 05:29N 51°29' E 003°42'0 0.0
2018-Feb-20 04:59N 51°29' E 003°42'0 0.0
2018-Feb-20 04:29N 51°29' E 003°42'0 0.0
2018-Feb-20 03:59N 51°29' E 003°42'0 0.0
2018-Feb-20 03:26N 51°29' E 003°42'0 0.0
2018-Feb-20 02:59N 51°29' E 003°42'0 0.0
2018-Feb-20 02:29N 51°29' E 003°42'0 0.0
2018-Feb-20 01:59N 51°29' E 003°42'0 0.0
2018-Feb-20 01:29N 51°29' E 003°42'0 0.0
2018-Feb-20 00:59N 51°29' E 003°42'0 0.0
2018-Feb-20 00:11N 51°29' E 003°42'0 0.0
2018-Feb-19 23:56N 51°29' E 003°42'0 0.0
2018-Feb-19 22:41N 51°29' E 003°42'0 0.0
2018-Feb-19 21:23N 51°29' E 003°42'0 0.0
2018-Feb-19 20:29N 51°29' E 003°42'0 0.0
2018-Feb-19 19:59N 51°29' E 003°42'0 0.0
2018-Feb-19 18:59N 51°29' E 003°42'0 0.0
2018-Feb-19 18:29N 51°29' E 003°42'0 0.0
2018-Feb-19 17:29N 51°29' E 003°42'0 0.0
2018-Feb-19 16:59N 51°29' E 003°42'0 0.0
2018-Feb-19 16:29N 51°29' E 003°42'0 0.0
2018-Feb-19 15:59N 51°29' E 003°42'0 0.0
2018-Feb-19 14:53N 51°29' E 003°42'0 0.0
2018-Feb-19 12:35N 51°29' E 003°42'0 0.1
2018-Feb-19 12:29N 51°29' E 003°42'0 0.0
2018-Feb-19 11:59N 51°29' E 003°42'0 0.0
2018-Feb-19 11:11N 51°29' E 003°42'0 0.0
2018-Feb-19 10:47N 51°29' E 003°42'0 0.0
2018-Feb-19 09:53N 51°29' E 003°42'0 0.0
2018-Feb-19 03:59N 51°29' E 003°42'0 0.0
2018-Feb-19 03:17N 51°29' E 003°42'0 0.0
2018-Feb-19 02:59N 51°29' E 003°42'0 0.0
2018-Feb-19 02:29N 51°29' E 003°42'1 1.7
2018-Feb-19 02:00N 51°28' E 003°42'4 7.3
2018-Feb-19 01:30N 51°26' E 003°37'713.7
2018-Feb-19 01:00N 51°25' E 003°26'815.4
2018-Feb-19 00:31N 51°24' E 003°14'714.2
2018-Feb-19 00:00N 51°24' E 003°03'510.8
2018-Feb-18 23:30N 51°22' E 002°55'510.3
2018-Feb-18 23:00N 51°22' E 002°46'610.3
2018-Feb-18 22:27N 51°22' E 002°37'3 5.6
2018-Feb-18 21:56N 51°24' E 002°34'0 0.1
2018-Feb-18 21:30N 51°24' E 002°34'0 0.0
2018-Feb-18 20:57N 51°24' E 002°34'0 0.0
2018-Feb-18 20:30N 51°24' E 002°34'0 0.1
2018-Feb-18 20:00N 51°24' E 002°34'0 0.1
2018-Feb-18 19:15N 51°24' E 002°34'0 0.1
2018-Feb-18 18:54N 51°24' E 002°34'0 0.1
2018-Feb-18 18:30N 51°24' E 002°34'0 0.0
2018-Feb-18 18:00N 51°24' E 002°34'0 0.1
2018-Feb-18 17:30N 51°24' E 002°35'0 0.1
2018-Feb-18 16:51N 51°24' E 002°35'0 0.0
2018-Feb-18 16:30N 51°24' E 002°35'0 0.0
2018-Feb-18 16:00N 51°24' E 002°35'0 0.0
2018-Feb-18 15:30N 51°24' E 002°35'0 0.0
2018-Feb-18 15:00N 51°24' E 002°35'0 0.0
2018-Feb-18 14:30N 51°24' E 002°35'0 0.0
2018-Feb-18 14:00N 51°24' E 002°35'0 0.0
2018-Feb-18 13:30N 51°24' E 002°35'0 0.0
2018-Feb-18 13:00N 51°24' E 002°35'0 0.3
2018-Feb-18 12:30N 51°24' E 002°34'0 0.1
2018-Feb-18 12:00N 51°24' E 002°34'0 0.0
2018-Feb-18 11:30N 51°24' E 002°34'0 0.0
2018-Feb-18 11:00N 51°24' E 002°34'0 0.0
2018-Feb-18 10:30N 51°24' E 002°34'0 0.0
2018-Feb-18 10:00N 51°24' E 002°34'0 0.0
2018-Feb-18 09:30N 51°24' E 002°34'0 0.0
2018-Feb-18 09:00N 51°24' E 002°34'0 0.0
2018-Feb-18 08:30N 51°24' E 002°34'0 0.0
2018-Feb-18 07:57N 51°24' E 002°34'0 0.1
2018-Feb-18 07:30N 51°24' E 002°34'0 0.0
2018-Feb-18 07:00N 51°24' E 002°34'0 0.1
2018-Feb-18 06:30N 51°24' E 002°34'0 0.1
2018-Feb-18 06:00N 51°24' E 002°35'0 0.0
2018-Feb-18 05:30N 51°24' E 002°35'0 0.0
2018-Feb-18 04:54N 51°24' E 002°35'0 0.0
2018-Feb-18 04:30N 51°24' E 002°35'0 0.0
2018-Feb-18 04:00N 51°24' E 002°35'0 0.0
2018-Feb-18 03:30N 51°24' E 002°35'0 0.0
2018-Feb-18 03:00N 51°24' E 002°35'0 0.0
2018-Feb-18 02:30N 51°24' E 002°35'0 0.0
2018-Feb-18 02:00N 51°24' E 002°35'0 0.0
2018-Feb-18 01:30N 51°24' E 002°35'0 0.0
2018-Feb-18 01:00N 51°24' E 002°35'0 0.1
2018-Feb-18 00:30N 51°24' E 002°35'0 0.2
2018-Feb-18 00:00N 51°24' E 002°35'0 0.1
2018-Feb-17 23:30N 51°24' E 002°34'0 0.0
2018-Feb-17 23:00N 51°24' E 002°34'0 0.0
2018-Feb-17 22:30N 51°24' E 002°34'0 0.0
2018-Feb-17 22:00N 51°24' E 002°34'0 0.0
2018-Feb-17 21:27N 51°24' E 002°34'0 0.0
2018-Feb-17 21:00N 51°24' E 002°34'0 0.0
2018-Feb-17 20:30N 51°24' E 002°34'0 0.0
2018-Feb-17 20:00N 51°24' E 002°34'0 0.0
2018-Feb-17 19:30N 51°24' E 002°34'0 0.1
2018-Feb-17 18:57N 51°24' E 002°34'0 0.1
2018-Feb-17 18:03N 51°24' E 002°34'0 5.1
2018-Feb-17 17:58N 51°24' E 002°34'2 4.7
2018-Feb-17 17:30N 51°22' E 002°34'4 7.0
2018-Feb-17 17:00N 51°21' E 002°28'5 9.7
2018-Feb-17 16:30N 51°19' E 002°21'611.5
2018-Feb-17 16:00N 51°16' E 002°13'611.8
2018-Feb-17 15:30N 51°14' E 002°05'612.3
2018-Feb-17 15:00N 51°11' E 001°56'612.6
2018-Feb-17 14:30N 51°07' E 001°48'713.4
2018-Feb-17 14:00N 51°04' E 001°38'510.3
2018-Feb-17 13:30N 51°07' E 001°31'5 9.9
2018-Feb-17 13:00N 51°08' E 001°23'2 0.0
2018-Feb-15 21:03N 51°08' E 001°20'0 0.1
2018-Feb-15 20:58N 51°08' E 001°20'1 1.4
2018-Feb-15 20:30N 51°07' E 001°20'3 5.7
2018-Feb-15 20:00N 51°07' E 001°25'4 8.2
2018-Feb-15 19:30N 51°04' E 001°29'5 9.6
2018-Feb-15 19:00N 50°59' E 001°31'611.5
2018-Feb-15 18:30N 50°54' E 001°26'5412.1
2018-Feb-15 14:00N 50°22' E 000°17'714.3
2018-Feb-15 13:30N 50°20' E 000°06'714.6
2018-Feb-15 13:00N 50°18' W 000°05'714.6
2018-Feb-15 12:30N 50°17' W 000°16'815.1
2018-Feb-15 11:59N 50°15' W 000°28'2117.5
2018-Feb-15 10:46N 50°09' W 000°60'618.7
2018-Feb-15 10:26N 50°07' W 001°10'819.3
2018-Feb-15 10:00N 50°06' W 001°22'1019.8
2018-Feb-15 09:31N 50°03' W 001°37'1020.4
2018-Feb-15 09:00N 50°00' W 001°52'1020.8
2018-Feb-15 08:30N 49°58' W 002°08'1522.9
2018-Feb-15 07:51N 49°53' W 002°30'1022.5
2018-Feb-15 07:24N 49°50' W 002°45'2322.0
2018-Feb-15 06:21N 49°40' W 003°17'5221.7
2018-Feb-15 03:57N 49°14' W 004°26'1421.7
2018-Feb-15 03:17N 49°07' W 004°45'921.6
2018-Feb-15 02:54N 49°03' W 004°57'821.2
2018-Feb-15 02:30N 48°59' W 005°08'1121.6
2018-Feb-15 01:59N 48°53' W 005°22'1021.3
2018-Feb-15 01:30N 48°48' W 005°36'1021.0
2018-Feb-15 01:00N 48°39' W 005°44'1121.1
2018-Feb-15 00:29N 48°29' W 005°52'1120.0
2018-Feb-14 23:58N 48°22' W 006°03'1120.1
2018-Feb-14 23:23N 48°15' W 006°17'1119.9
2018-Feb-14 22:51N 48°10' W 006°31'104320.1
2018-Feb-12 18:55N 38°41' W 026°35'3719.9
2018-Feb-12 17:05N 38°21' W 027°14'119.5
2018-Feb-12 17:00N 38°20' W 027°16'1020.1
2018-Feb-12 16:30N 38°15' W 027°27'1019.9
2018-Feb-12 16:00N 38°10' W 027°37'1019.6
2018-Feb-12 15:30N 38°04' W 027°48'1020.0
2018-Feb-12 15:00N 37°59' W 027°58'1020.1
2018-Feb-12 14:30N 37°53' W 028°09'1019.9
2018-Feb-12 14:00N 37°48' W 028°20'1019.9
2018-Feb-12 13:30N 37°42' W 028°30'1019.9
2018-Feb-12 13:01N 37°36' W 028°40'1020.0
2018-Feb-12 12:30N 37°31' W 028°51'1020.1
2018-Feb-12 12:00N 37°25' W 029°01'1020.1
2018-Feb-12 11:30N 37°20' W 029°12'11020.0
2018-Feb-12 06:00N 36°18' W 031°06'   020 / 151032.7 5.4 17.012.8

Dump ship's entire track history